createdAt,value
2018-12-18T00:00:05.150Z,23.4
2018-12-18T00:02:04.913Z,23.4
2018-12-18T00:04:05.614Z,23.4
2018-12-18T00:06:05.314Z,23.4
2018-12-18T00:08:05.020Z,23.4
2018-12-18T00:10:04.698Z,23.4
2018-12-18T00:12:05.428Z,23.4
2018-12-18T00:14:05.228Z,23.4
2018-12-18T00:16:04.920Z,23.4
2018-12-18T00:18:07.355Z,23.4
2018-12-18T00:20:05.642Z,23.4
2018-12-18T00:22:07.881Z,23.4
2018-12-18T00:24:04.776Z,23.4
2018-12-18T00:26:04.717Z,23.4
2018-12-18T00:28:07.943Z,23.4
2018-12-18T00:30:05.606Z,23.4
2018-12-18T00:32:07.377Z,23.4
2018-12-18T00:34:05.593Z,23.4
2018-12-18T00:36:04.865Z,23.4
2018-12-18T00:38:05.611Z,23.4
2018-12-18T00:40:05.272Z,23.3
2018-12-18T00:42:15.666Z,23.4
2018-12-18T00:44:05.350Z,23.4
2018-12-18T00:46:05.576Z,23.4
2018-12-18T00:48:05.273Z,23.4
2018-12-18T00:50:05.057Z,23.4
2018-12-18T00:52:04.858Z,23.3
2018-12-18T00:54:05.649Z,23.4
2018-12-18T00:56:07.989Z,23.4
2018-12-18T00:58:04.719Z,23.4
2018-12-18T01:00:05.630Z,23.4
2018-12-18T01:02:07.869Z,23.3
2018-12-18T01:04:08.357Z,23.4
2018-12-18T01:06:05.180Z,23.4
2018-12-18T01:08:13.087Z,23.3
2018-12-18T01:10:04.762Z,23.4
2018-12-18T01:12:05.431Z,23.4
2018-12-18T01:14:05.152Z,23.3
2018-12-18T01:16:04.801Z,23.3
2018-12-18T01:18:04.657Z,23.4
2018-12-18T01:20:05.310Z,23.4
2018-12-18T01:22:05.002Z,23.4
2018-12-18T01:24:04.711Z,23.4
2018-12-18T01:26:05.480Z,23.4
2018-12-18T01:28:05.267Z,23.4
2018-12-18T01:30:07.965Z,23.3
2018-12-18T01:32:04.763Z,23.3
2018-12-18T01:34:05.501Z,23.3
2018-12-18T01:36:07.700Z,23.4
2018-12-18T01:38:05.418Z,23.3
2018-12-18T01:40:05.201Z,23.4
2018-12-18T01:42:04.866Z,23.3
2018-12-18T01:44:05.622Z,23.3
2018-12-18T01:46:07.351Z,23.3
2018-12-18T01:48:05.105Z,23.3
2018-12-18T01:50:04.816Z,23.3
2018-12-18T01:52:05.512Z,23.3
2018-12-18T01:54:04.750Z,23.3
2018-12-18T01:56:05.632Z,23.3
2018-12-18T01:58:04.841Z,23.3
2018-12-18T02:00:08.157Z,23.3
2018-12-18T02:02:04.864Z,23.3
2018-12-18T02:04:06.017Z,23.3
2018-12-18T02:06:04.945Z,23.3
2018-12-18T02:08:04.707Z,23.3
2018-12-18T02:10:08.112Z,23.2
2018-12-18T02:12:04.864Z,23.2
2018-12-18T02:14:05.578Z,23.2
2018-12-18T02:16:05.286Z,23.2
2018-12-18T02:18:04.670Z,23.3
2018-12-18T02:20:05.384Z,23.3
2018-12-18T02:22:05.131Z,23.2
2018-12-18T02:24:04.821Z,23.2
2018-12-18T02:26:05.559Z,23.2
2018-12-18T02:28:05.373Z,23.2
2018-12-18T02:30:05.061Z,23.2
2018-12-18T02:32:04.798Z,23.1
2018-12-18T02:34:04.999Z,23.2
2018-12-18T02:36:05.119Z,23.2
2018-12-18T02:38:05.467Z,23.2
2018-12-18T02:40:07.725Z,23.2
2018-12-18T02:42:05.402Z,23.2
2018-12-18T02:44:05.087Z,23.2
2018-12-18T02:46:05.283Z,23.3
2018-12-18T02:48:04.946Z,23.2
2018-12-18T02:50:04.647Z,23.2
2018-12-18T02:52:05.368Z,23.2
2018-12-18T02:54:05.042Z,23.2
2018-12-18T02:56:09.914Z,23.2
2018-12-18T02:58:05.583Z,23.2
2018-12-18T03:00:05.237Z,23.2
2018-12-18T03:02:04.930Z,23.2
2018-12-18T03:04:04.656Z,23.2
2018-12-18T03:06:05.496Z,23.2
2018-12-18T03:08:05.214Z,23.3
2018-12-18T03:10:04.881Z,23.2
2018-12-18T03:12:05.555Z,23.2
2018-12-18T03:14:05.260Z,23.2
2018-12-18T03:16:07.557Z,23.3
2018-12-18T03:18:07.551Z,23.3
2018-12-18T03:20:05.220Z,23.3
2018-12-18T03:22:05.360Z,23.3
2018-12-18T03:24:05.607Z,23.3
2018-12-18T03:26:05.413Z,23.3
2018-12-18T03:28:04.706Z,23.3
2018-12-18T03:30:04.935Z,23.3
2018-12-18T03:32:04.841Z,23.2
2018-12-18T03:34:05.532Z,23.3
2018-12-18T03:36:05.216Z,23.2
2018-12-18T03:38:07.457Z,23.3
2018-12-18T03:40:05.125Z,23.3
2018-12-18T03:42:04.819Z,23.3
2018-12-18T03:44:05.502Z,23.3
2018-12-18T03:46:05.261Z,23.2
2018-12-18T03:48:04.957Z,23.2
2018-12-18T03:50:07.184Z,23.2
2018-12-18T03:52:05.660Z,23.2
2018-12-18T03:54:07.922Z,23.2
2018-12-18T03:56:04.686Z,23.2
2018-12-18T03:58:04.752Z,23.2
2018-12-18T04:00:05.383Z,23.2
2018-12-18T04:02:07.604Z,23.2
2018-12-18T04:04:05.246Z,23.2
2018-12-18T04:06:04.943Z,23.2
2018-12-18T04:08:04.673Z,23.2
2018-12-18T04:10:10.089Z,23.2
2018-12-18T04:12:04.790Z,23.2
2018-12-18T04:14:05.456Z,23.2
2018-12-18T04:16:05.119Z,23.2
2018-12-18T04:18:05.030Z,23.1
2018-12-18T04:20:07.314Z,23.2
2018-12-18T04:22:04.982Z,23.2
2018-12-18T04:24:04.739Z,23.2
2018-12-18T04:26:05.494Z,23.2
2018-12-18T04:28:05.230Z,23.2
2018-12-18T04:30:07.454Z,23.2
2018-12-18T04:32:05.212Z,23.2
2018-12-18T04:34:04.869Z,23.2
2018-12-18T04:36:05.536Z,23.2
2018-12-18T04:38:05.271Z,23.2
2018-12-18T04:40:04.966Z,23.2
2018-12-18T04:42:04.700Z,23.2
2018-12-18T04:44:10.471Z,23.3
2018-12-18T04:46:07.733Z,23.3
2018-12-18T04:48:05.412Z,23.3
2018-12-18T04:50:05.081Z,23.3
2018-12-18T04:52:04.894Z,23.4
2018-12-18T04:54:08.081Z,23.4
2018-12-18T04:56:04.756Z,23.4
2018-12-18T04:58:08.092Z,23.4
2018-12-18T05:00:05.057Z,23.4
2018-12-18T05:07:38.927Z,23.4
2018-12-18T05:08:07.212Z,23.5
2018-12-18T05:10:05.002Z,23.5
2018-12-18T05:12:04.716Z,23.5
2018-12-18T05:14:05.440Z,23.5
2018-12-18T05:16:05.121Z,23.5
2018-12-18T05:18:13.135Z,23.5
2018-12-18T05:20:05.561Z,23.5
2018-12-18T05:22:05.282Z,23.5
2018-12-18T05:24:04.973Z,23.5
2018-12-18T05:26:05.230Z,23.5
2018-12-18T05:28:04.906Z,23.5
2018-12-18T05:30:07.663Z,23.5
2018-12-18T05:32:08.187Z,23.5
2018-12-18T05:34:07.728Z,23.5
2018-12-18T05:36:07.981Z,23.5
2018-12-18T05:38:10.255Z,23.4
2018-12-18T05:40:04.924Z,23.5
2018-12-18T05:42:05.633Z,23.5
2018-12-18T05:44:05.003Z,23.5
2018-12-18T05:46:07.305Z,23.4
2018-12-18T05:48:05.327Z,23.4
2018-12-18T05:50:12.604Z,23.4
2018-12-18T05:52:04.989Z,23.5
2018-12-18T05:54:05.214Z,23.5
2018-12-18T05:56:17.607Z,23.4
2018-12-18T05:58:05.319Z,23.4
2018-12-18T06:00:05.008Z,23.4
2018-12-18T06:02:07.184Z,23.4
2018-12-18T06:04:04.919Z,23.4
2018-12-18T06:06:05.603Z,23.4
2018-12-18T06:08:05.311Z,23.4
2018-12-18T06:10:05.507Z,23.4
2018-12-18T06:12:07.729Z,23.4
2018-12-18T06:14:07.924Z,23.4
2018-12-18T06:16:07.305Z,23.4
2018-12-18T06:18:07.702Z,23.4
2018-12-18T06:20:05.630Z,23.5
2018-12-18T06:22:07.617Z,23.5
2018-12-18T06:24:09.894Z,23.5
2018-12-18T06:26:08.127Z,23.5
2018-12-18T06:28:04.833Z,23.5
2018-12-18T06:30:05.505Z,23.5
2018-12-18T06:32:05.208Z,23.5
2018-12-18T06:34:12.496Z,23.5
2018-12-18T06:36:07.719Z,23.5
2018-12-18T06:38:05.498Z,23.5
2018-12-18T06:40:05.220Z,23.4
2018-12-18T06:42:05.121Z,23.5
2018-12-18T06:44:05.343Z,23.5
2018-12-18T06:46:07.549Z,23.4
2018-12-18T06:48:04.814Z,23.3
2018-12-18T06:50:05.079Z,23.3
2018-12-18T06:52:04.799Z,23.3
2018-12-18T06:54:05.505Z,23.4
2018-12-18T06:56:04.750Z,23.4
2018-12-18T06:58:07.957Z,23.4
2018-12-18T07:00:05.116Z,23.4
2018-12-18T07:02:04.780Z,23.3
2018-12-18T07:04:04.939Z,23.4
2018-12-18T07:06:08.158Z,23.3
2018-12-18T07:08:04.844Z,23.3
2018-12-18T07:10:05.165Z,23.3
2018-12-18T07:12:04.848Z,23.4
2018-12-18T07:14:05.573Z,23.4
2018-12-18T07:16:07.822Z,23.4
2018-12-18T07:18:04.713Z,23.4
2018-12-18T07:20:05.465Z,23.4
2018-12-18T07:22:05.162Z,23.5
2018-12-18T07:24:13.837Z,23.5
2018-12-18T07:26:04.762Z,23.5
2018-12-18T07:28:05.530Z,23.5
2018-12-18T07:30:05.251Z,23.6
2018-12-18T07:32:07.520Z,23.5
2018-12-18T07:34:05.379Z,23.5
2018-12-18T07:36:07.596Z,23.5
2018-12-18T07:38:05.174Z,23.5
2018-12-18T07:40:05.403Z,23.5
2018-12-18T07:42:05.137Z,23.5
2018-12-18T07:44:04.844Z,23.5
2018-12-18T07:46:05.524Z,23.5
2018-12-18T07:48:05.200Z,23.5
2018-12-18T07:50:12.946Z,23.5
2018-12-18T07:52:04.598Z,23.5
2018-12-18T07:54:05.237Z,23.5
2018-12-18T07:56:04.944Z,23.6
2018-12-18T07:58:04.697Z,23.6
2018-12-18T08:00:05.382Z,23.6
2018-12-18T08:02:05.123Z,23.6
2018-12-18T08:04:05.402Z,23.6
2018-12-18T08:06:05.061Z,23.6
2018-12-18T08:08:07.313Z,23.6
2018-12-18T08:10:05.021Z,23.7
2018-12-18T08:12:14.920Z,23.7
2018-12-18T08:14:04.757Z,23.7
2018-12-18T08:16:05.420Z,23.7
2018-12-18T08:18:05.321Z,23.7
2018-12-18T08:20:05.043Z,23.6
2018-12-18T08:22:04.719Z,23.6
2018-12-18T08:24:04.936Z,23.6
2018-12-18T08:26:05.590Z,23.7
2018-12-18T08:28:04.817Z,23.8
2018-12-18T08:30:10.545Z,23.7
2018-12-18T08:32:05.239Z,23.8
2018-12-18T08:34:04.981Z,23.7
2018-12-18T08:36:05.211Z,23.8
2018-12-18T08:38:04.919Z,23.8
2018-12-18T08:40:04.621Z,23.8
2018-12-18T08:42:05.393Z,23.8
2018-12-18T08:44:10.155Z,23.9
2018-12-18T08:46:10.296Z,23.9
2018-12-18T08:48:10.198Z,24
2018-12-18T08:50:04.912Z,24
2018-12-18T08:52:05.546Z,24
2018-12-18T08:54:05.269Z,24
2018-12-18T08:56:04.968Z,24
2018-12-18T08:58:10.290Z,24
2018-12-18T09:00:04.954Z,24.1
2018-12-18T09:02:04.710Z,24.1
2018-12-18T09:04:05.376Z,24
2018-12-18T09:06:05.065Z,24
2018-12-18T09:08:04.771Z,24.1
2018-12-18T09:10:04.984Z,24.1
2018-12-18T09:12:07.688Z,24.2
2018-12-18T09:14:05.383Z,24.2
2018-12-18T09:16:05.651Z,24.2
2018-12-18T09:18:08.128Z,24.2
2018-12-18T09:20:04.824Z,24.2
2018-12-18T09:22:05.507Z,24.2
2018-12-18T09:24:05.203Z,24.2
2018-12-18T09:26:04.991Z,24.3
2018-12-18T09:28:04.679Z,24.2
2018-12-18T09:30:05.343Z,24.2
2018-12-18T09:32:12.624Z,24.2
2018-12-18T09:34:10.386Z,24.3
2018-12-18T09:36:05.053Z,24.3
2018-12-18T09:38:04.887Z,24.3
2018-12-18T09:40:05.586Z,24.2
2018-12-18T09:42:05.280Z,24.2
2018-12-18T09:44:05.027Z,24.2
2018-12-18T09:46:04.711Z,24.2
2018-12-18T09:48:05.456Z,24.2
2018-12-18T09:50:05.239Z,24.2
2018-12-18T09:52:04.909Z,24.2
2018-12-18T09:54:05.650Z,24.2
2018-12-18T09:56:04.822Z,24.1
2018-12-18T09:58:05.490Z,24.1
2018-12-18T10:00:05.173Z,24.2
2018-12-18T10:02:05.393Z,24.1
2018-12-18T10:04:08.185Z,24
2018-12-18T10:06:05.379Z,24
2018-12-18T10:08:05.025Z,24
2018-12-18T10:10:04.728Z,24
2018-12-18T10:12:05.416Z,24
2018-12-18T10:14:05.697Z,24
2018-12-18T10:16:07.930Z,24
2018-12-18T10:18:04.818Z,24
2018-12-18T10:20:05.512Z,24
2018-12-18T10:22:17.871Z,24
2018-12-18T10:24:05.104Z,24
2018-12-18T10:26:05.371Z,24
2018-12-18T10:28:05.040Z,24
2018-12-18T10:30:05.276Z,24
2018-12-18T10:32:05.215Z,24
2018-12-18T10:34:09.907Z,24
2018-12-18T10:36:05.555Z,24
2018-12-18T10:38:05.203Z,24
2018-12-18T10:40:04.850Z,24
2018-12-18T10:42:07.626Z,24
2018-12-18T10:44:04.925Z,24
2018-12-18T10:46:10.631Z,24
2018-12-18T10:48:05.253Z,24
2018-12-18T10:50:09.952Z,23.9
2018-12-18T10:52:05.182Z,24
2018-12-18T10:54:04.888Z,23.9
2018-12-18T10:56:08.122Z,24
2018-12-18T10:58:04.913Z,24
2018-12-18T11:00:05.244Z,23.9
2018-12-18T11:02:04.904Z,24
2018-12-18T11:04:05.584Z,24
2018-12-18T11:06:09.715Z,24
2018-12-18T11:08:09.841Z,24
2018-12-18T11:10:07.575Z,24
2018-12-18T11:12:07.802Z,24
2018-12-18T11:14:05.513Z,23.9
2018-12-18T11:16:05.190Z,23.9
2018-12-18T11:18:07.629Z,23.9
2018-12-18T11:20:07.883Z,23.9
2018-12-18T11:22:04.635Z,23.8
2018-12-18T11:24:05.308Z,23.9
2018-12-18T11:26:05.542Z,23.9
2018-12-18T11:28:05.309Z,23.9
2018-12-18T11:30:04.973Z,23.9
2018-12-18T11:32:07.151Z,23.9
2018-12-18T11:34:04.957Z,23.8
2018-12-18T11:36:07.448Z,23.8
2018-12-18T11:38:04.973Z,23.8
2018-12-18T11:40:04.673Z,23.8
2018-12-18T11:42:05.364Z,23.8
2018-12-18T11:44:05.056Z,23.8
2018-12-18T11:46:05.556Z,23.8
2018-12-18T11:48:08.191Z,23.8
2018-12-18T11:50:05.379Z,23.8
2018-12-18T11:52:07.309Z,23.8
2018-12-18T11:54:05.119Z,23.8
2018-12-18T11:56:05.608Z,23.8
2018-12-18T11:58:07.320Z,23.7
2018-12-18T12:00:05.087Z,23.7
2018-12-18T12:02:04.854Z,23.7
2018-12-18T12:04:07.257Z,23.7
2018-12-18T12:06:04.983Z,23.7
2018-12-18T12:08:05.248Z,23.7
2018-12-18T12:10:04.921Z,23.7
2018-12-18T12:12:04.886Z,23.7
2018-12-18T12:14:08.505Z,23.7
2018-12-18T12:16:05.180Z,23.7
2018-12-18T12:18:05.140Z,23.7
2018-12-18T12:20:04.790Z,23.7
2018-12-18T12:22:05.046Z,23.7
2018-12-18T12:24:04.723Z,23.8
2018-12-18T12:26:05.503Z,23.7
2018-12-18T12:28:05.468Z,23.8
2018-12-18T12:30:05.402Z,23.7
2018-12-18T12:32:07.840Z,23.7
2018-12-18T12:34:05.635Z,23.7
2018-12-18T12:36:05.373Z,23.8
2018-12-18T12:38:07.688Z,23.8
2018-12-18T12:40:05.014Z,23.8
2018-12-18T12:42:07.211Z,23.7
2018-12-18T12:44:07.417Z,23.7
2018-12-18T12:46:06.155Z,23.7
2018-12-18T12:48:04.822Z,23.7
2018-12-18T12:50:05.574Z,23.7
2018-12-18T12:52:05.326Z,23.7
2018-12-18T12:54:05.005Z,23.7
2018-12-18T12:56:07.737Z,23.7
2018-12-18T12:58:05.513Z,23.7
2018-12-18T13:00:05.285Z,23.7
2018-12-18T13:02:04.692Z,23.7
2018-12-18T13:04:05.444Z,23.7
2018-12-18T13:06:05.590Z,23.7
2018-12-18T13:08:07.812Z,23.7
2018-12-18T13:10:05.524Z,23.7
2018-12-18T13:12:05.313Z,23.6
2018-12-18T13:14:04.973Z,23.7
2018-12-18T13:16:04.715Z,23.6
2018-12-18T13:18:05.164Z,23.6
2018-12-18T13:20:04.829Z,23.6
2018-12-18T13:22:09.871Z,23.6
2018-12-18T13:24:05.126Z,23.7
2018-12-18T13:26:05.103Z,23.7
2018-12-18T13:28:04.868Z,23.7
2018-12-18T13:30:10.665Z,23.7
2018-12-18T13:32:07.949Z,23.6
2018-12-18T13:34:05.431Z,23.6
2018-12-18T13:36:05.321Z,23.6
2018-12-18T13:38:13.299Z,23.6
2018-12-18T13:40:05.519Z,23.6
2018-12-18T13:42:05.316Z,23.6
2018-12-18T13:44:05.079Z,23.6
2018-12-18T13:46:04.983Z,23.6
2018-12-18T13:48:05.437Z,23.6
2018-12-18T13:50:05.502Z,23.6
2018-12-18T13:52:04.774Z,23.6
2018-12-18T13:54:07.207Z,23.6
2018-12-18T13:56:04.844Z,23.6
2018-12-18T13:58:05.532Z,23.6
2018-12-18T14:00:05.231Z,23.6
2018-12-18T14:02:05.154Z,23.6
2018-12-18T14:04:04.878Z,23.6
2018-12-18T14:06:05.154Z,23.6
2018-12-18T14:08:04.870Z,23.6
2018-12-18T14:10:05.793Z,23.6
2018-12-18T14:12:05.481Z,23.6
2018-12-18T14:14:05.401Z,23.6
2018-12-18T14:16:05.117Z,23.6
2018-12-18T14:18:05.193Z,23.6
2018-12-18T14:20:06.204Z,23.6
2018-12-18T14:22:07.012Z,23.6
2018-12-18T14:24:05.406Z,23.6
2018-12-18T14:26:05.347Z,23.6
2018-12-18T14:28:10.850Z,23.6
2018-12-18T14:30:04.982Z,23.6
2018-12-18T14:32:05.207Z,23.6
2018-12-18T14:34:10.618Z,23.5
2018-12-18T14:36:06.023Z,23.6
2018-12-18T14:38:10.095Z,23.5
2018-12-18T14:40:05.481Z,23.5
2018-12-18T14:42:06.027Z,23.5
2018-12-18T14:44:04.806Z,23.5
2018-12-18T14:46:06.246Z,23.5
2018-12-18T14:48:05.343Z,23.6
2018-12-18T14:50:06.067Z,23.5
2018-12-18T14:52:04.720Z,23.5
2018-12-18T14:54:05.441Z,23.5
2018-12-18T14:56:05.750Z,23.5
2018-12-18T14:58:05.176Z,23.5
2018-12-18T15:00:06.080Z,23.5
2018-12-18T15:02:04.633Z,23.5
2018-12-18T15:04:05.353Z,23.5
2018-12-18T15:06:05.065Z,23.5
2018-12-18T15:08:04.742Z,23.5
2018-12-18T15:10:05.458Z,23.5
2018-12-18T15:12:05.214Z,23.5
2018-12-18T15:14:04.942Z,23.5
2018-12-18T15:16:05.198Z,23.5
2018-12-18T15:18:10.137Z,23.5
2018-12-18T15:20:05.366Z,23.4
2018-12-18T15:22:07.547Z,23.5
2018-12-18T15:24:17.899Z,23.5
2018-12-18T15:26:04.594Z,23.5
2018-12-18T15:28:04.761Z,23.5
2018-12-18T15:30:05.548Z,23.5
2018-12-18T15:32:04.768Z,23.4
2018-12-18T15:34:15.281Z,23.4
2018-12-18T15:36:05.624Z,23.5
2018-12-18T15:38:04.986Z,23.4
2018-12-18T15:40:04.863Z,23.5
2018-12-18T15:42:10.581Z,23.5
2018-12-18T15:44:05.270Z,23.4
2018-12-18T15:46:15.594Z,23.5
2018-12-18T15:48:05.249Z,23.5
2018-12-18T15:50:04.937Z,23.5
2018-12-18T15:52:05.112Z,23.5
2018-12-18T15:54:04.774Z,23.6
2018-12-18T15:56:05.538Z,23.6
2018-12-18T15:58:05.229Z,23.6
2018-12-18T16:00:07.479Z,23.6
2018-12-18T16:02:05.184Z,23.6
2018-12-18T16:04:07.763Z,23.6
2018-12-18T16:06:05.466Z,23.6
2018-12-18T16:08:05.240Z,23.6
2018-12-18T16:10:10.996Z,23.6
2018-12-18T16:12:04.678Z,23.6
2018-12-18T16:14:05.414Z,23.6
2018-12-18T16:16:05.775Z,23.6
2018-12-18T16:18:04.777Z,23.7
2018-12-18T16:20:07.835Z,23.6
2018-12-18T16:22:06.706Z,23.6
2018-12-18T16:24:04.909Z,23.6
2018-12-18T16:26:07.323Z,23.6
2018-12-18T16:28:05.467Z,23.6
2018-12-18T16:30:05.156Z,23.6
2018-12-18T16:32:07.410Z,23.6
2018-12-18T16:34:05.240Z,23.5
2018-12-18T16:36:05.002Z,23.6
2018-12-18T16:38:04.685Z,23.6
2018-12-18T16:40:05.351Z,23.6
2018-12-18T16:42:07.570Z,23.6
2018-12-18T16:44:05.281Z,23.7
2018-12-18T16:46:05.333Z,23.7
2018-12-18T16:48:05.054Z,23.7
2018-12-18T16:50:04.758Z,23.6
2018-12-18T16:52:05.452Z,23.6
2018-12-18T16:54:10.253Z,23.5
2018-12-18T16:56:07.037Z,23.5
2018-12-18T16:58:13.097Z,23.5
2018-12-18T17:00:06.047Z,23.5
2018-12-18T17:02:06.585Z,23.5
2018-12-18T17:04:04.955Z,23.5
2018-12-18T17:06:05.245Z,23.5
2018-12-18T17:08:04.942Z,23.5
2018-12-18T17:10:12.223Z,23.4
2018-12-18T17:12:12.497Z,23.4
2018-12-18T17:14:05.194Z,23.4
2018-12-18T17:16:12.409Z,23.4
2018-12-18T17:18:05.310Z,23.4
2018-12-18T17:20:05.040Z,23.4
2018-12-18T17:22:05.531Z,23.4
2018-12-18T17:24:05.361Z,23.4
2018-12-18T17:26:05.041Z,23.4
2018-12-18T17:28:07.249Z,23.5
2018-12-18T17:30:05.026Z,23.5
2018-12-18T17:32:04.699Z,23.4
2018-12-18T17:34:05.403Z,23.4
2018-12-18T17:36:04.831Z,23.4
2018-12-18T17:38:08.036Z,23.4
2018-12-18T17:40:04.975Z,23.4
2018-12-18T17:42:08.260Z,23.5
2018-12-18T17:44:05.126Z,23.5
2018-12-18T17:46:04.905Z,23.4
2018-12-18T17:48:10.653Z,23.4
2018-12-18T17:50:05.395Z,23.4
2018-12-18T17:52:07.609Z,23.4
2018-12-18T17:54:07.418Z,23.4
2018-12-18T17:56:05.165Z,23.4
2018-12-18T17:58:04.879Z,23.5
2018-12-18T18:00:05.623Z,23.5
2018-12-18T18:02:05.328Z,23.5
2018-12-18T18:04:09.034Z,23.5
2018-12-18T18:06:04.744Z,23.5
2018-12-18T18:08:05.480Z,23.5
2018-12-18T18:10:05.501Z,23.5
2018-12-18T18:12:05.525Z,23.5
2018-12-18T18:14:10.497Z,23.5
2018-12-18T18:16:05.215Z,23.5
2018-12-18T18:18:05.438Z,23.5
2018-12-18T18:20:05.121Z,23.5
2018-12-18T18:22:05.048Z,23.5
2018-12-18T18:24:04.738Z,23.5
2018-12-18T18:26:06.462Z,23.5
2018-12-18T18:28:07.708Z,23.5
2018-12-18T18:30:09.723Z,23.5
2018-12-18T18:32:05.444Z,23.5
2018-12-18T18:34:05.240Z,23.5
2018-12-18T18:36:05.490Z,23.5
2018-12-18T18:38:04.778Z,23.6
2018-12-18T18:40:07.436Z,23.5
2018-12-18T18:42:04.720Z,23.6
2018-12-18T18:44:05.414Z,23.6
2018-12-18T18:46:10.153Z,23.6
2018-12-18T18:48:05.330Z,23.5
2018-12-18T18:50:04.999Z,23.6
2018-12-18T18:52:04.751Z,23.6
2018-12-18T18:54:05.014Z,23.6
2018-12-18T18:56:04.767Z,23.6
2018-12-18T18:58:05.945Z,23.6
2018-12-18T19:00:05.150Z,23.6
2018-12-18T19:02:04.897Z,23.6
2018-12-18T19:04:04.906Z,23.6
2018-12-18T19:06:05.088Z,23.6
2018-12-18T19:08:04.770Z,23.6
2018-12-18T19:10:05.446Z,23.6
2018-12-18T19:12:05.145Z,23.5
2018-12-18T19:14:05.381Z,23.6
2018-12-18T19:16:07.175Z,23.6
2018-12-18T19:18:07.626Z,23.6
2018-12-18T19:20:10.367Z,23.6
2018-12-18T19:22:10.608Z,23.6
2018-12-18T19:24:07.837Z,23.6
2018-12-18T19:26:07.268Z,23.6
2018-12-18T19:28:05.001Z,23.6
2018-12-18T19:30:04.664Z,23.6
2018-12-18T19:32:04.830Z,23.6
2018-12-18T19:34:07.211Z,23.6
2018-12-18T19:36:04.845Z,23.6
2018-12-18T19:38:04.712Z,23.6
2018-12-18T19:40:04.906Z,23.6
2018-12-18T19:42:05.176Z,23.6
2018-12-18T19:44:04.873Z,23.6
2018-12-18T19:46:05.641Z,23.6
2018-12-18T19:48:05.582Z,23.6
2018-12-18T19:50:05.498Z,23.6
2018-12-18T19:52:05.305Z,23.7
2018-12-18T19:54:07.582Z,23.6
2018-12-18T19:56:07.793Z,23.6
2018-12-18T19:58:07.980Z,23.6
2018-12-18T20:00:04.653Z,23.6
2018-12-18T20:02:05.426Z,23.6
2018-12-18T20:04:05.090Z,23.6
2018-12-18T20:06:04.880Z,23.6
2018-12-18T20:08:09.981Z,23.6
2018-12-18T20:10:07.619Z,23.6
2018-12-18T20:12:05.328Z,23.6
2018-12-18T20:14:07.598Z,23.7
2018-12-18T20:16:05.314Z,23.7
2018-12-18T20:18:05.388Z,23.7
2018-12-18T20:20:07.719Z,23.7
2018-12-18T20:22:05.434Z,23.6
2018-12-18T20:24:04.670Z,23.7
2018-12-18T20:26:05.545Z,23.7
2018-12-18T20:28:05.356Z,23.8
2018-12-18T20:30:05.045Z,23.8
2018-12-18T20:32:05.343Z,23.8
2018-12-18T20:34:05.085Z,23.8
2018-12-18T20:36:05.607Z,23.8
2018-12-18T20:38:05.268Z,23.8
2018-12-18T20:40:05.229Z,23.8
2018-12-18T20:42:04.941Z,23.8
2018-12-18T20:44:05.156Z,23.8
2018-12-18T20:46:06.398Z,23.8
2018-12-18T20:48:07.635Z,23.8
2018-12-18T20:50:05.316Z,23.7
2018-12-18T20:52:10.030Z,23.8
2018-12-18T20:54:05.431Z,23.8
2018-12-18T20:56:05.122Z,23.8
2018-12-18T20:58:04.920Z,23.7
2018-12-18T21:00:05.618Z,23.7
2018-12-18T21:02:05.338Z,23.7
2018-12-18T21:04:05.058Z,23.7
2018-12-18T21:06:04.720Z,23.7
2018-12-18T21:08:05.437Z,23.7
2018-12-18T21:10:05.147Z,23.7
2018-12-18T21:12:07.412Z,23.8
2018-12-18T21:14:05.086Z,23.8
2018-12-18T21:16:09.891Z,23.7
2018-12-18T21:18:04.783Z,23.7
2018-12-18T21:20:05.449Z,23.7
2018-12-18T21:22:05.187Z,23.7
2018-12-18T21:24:07.364Z,23.6
2018-12-18T21:26:05.275Z,23.6
2018-12-18T21:28:07.589Z,23.7
2018-12-18T21:30:04.872Z,23.6
2018-12-18T21:32:04.652Z,23.6
2018-12-18T21:34:05.329Z,23.6
2018-12-18T21:36:05.096Z,23.7
2018-12-18T21:38:12.559Z,23.8
2018-12-18T21:40:05.226Z,23.8
2018-12-18T21:42:05.147Z,23.8
2018-12-18T21:44:10.433Z,23.8
2018-12-18T21:46:05.092Z,23.8
2018-12-18T21:48:04.779Z,23.8
2018-12-18T21:50:05.461Z,23.8
2018-12-18T21:52:05.729Z,23.9
2018-12-18T21:54:08.045Z,23.9
2018-12-18T21:56:10.525Z,23.9
2018-12-18T21:58:05.213Z,23.9
2018-12-18T22:00:09.522Z,24
2018-12-18T22:02:05.247Z,23.9
2018-12-18T22:04:05.176Z,23.9
2018-12-18T22:06:04.948Z,23.9
2018-12-18T22:08:04.713Z,24
2018-12-18T22:10:07.898Z,23.9
2018-12-18T22:12:05.572Z,23.9
2018-12-18T22:14:05.251Z,24
2018-12-18T22:16:04.920Z,23.9
2018-12-18T22:18:04.906Z,23.9
2018-12-18T22:20:04.750Z,23.9
2018-12-18T22:22:05.563Z,23.9
2018-12-18T22:24:07.404Z,23.9
2018-12-18T22:26:05.118Z,23.8
2018-12-18T22:28:05.048Z,23.9
2018-12-18T22:30:09.783Z,23.9
2018-12-18T22:32:04.734Z,23.9
2018-12-18T22:34:04.644Z,23.9
2018-12-18T22:36:08.008Z,24
2018-12-18T22:38:04.708Z,24
2018-12-18T22:40:07.972Z,24
2018-12-18T22:42:07.294Z,23.9
2018-12-18T22:44:04.997Z,23.9
2018-12-18T22:46:04.927Z,24
2018-12-18T22:48:08.207Z,24.1
2018-12-18T22:50:05.362Z,24
2018-12-18T22:52:05.062Z,24
2018-12-18T22:54:04.785Z,24
2018-12-18T22:56:05.582Z,24
2018-12-18T22:58:05.304Z,24
2018-12-18T23:00:05.164Z,24
2018-12-18T23:02:04.926Z,24
2018-12-18T23:04:04.637Z,24
2018-12-18T23:06:07.893Z,24
2018-12-18T23:08:05.616Z,24
2018-12-18T23:10:05.402Z,24
2018-12-18T23:12:04.698Z,24
2018-12-18T23:14:07.500Z,24.1
2018-12-18T23:16:05.217Z,24.1
2018-12-18T23:18:05.408Z,24.1
2018-12-18T23:20:05.216Z,24.1
2018-12-18T23:22:05.118Z,24.1
2018-12-18T23:24:04.812Z,24.1
2018-12-18T23:26:04.944Z,24.1
2018-12-18T23:28:20.928Z,24.2
2018-12-18T23:30:05.418Z,24.2
2018-12-18T23:32:04.743Z,24.2
2018-12-18T23:34:05.595Z,24.1
2018-12-18T23:36:05.008Z,24.2
2018-12-18T23:38:07.730Z,24.6
2018-12-18T23:40:05.086Z,24.6
2018-12-18T23:42:05.261Z,24.7
2018-12-18T23:44:11.008Z,24.8
2018-12-18T23:46:04.900Z,24.8
2018-12-18T23:48:10.734Z,24.8
2018-12-18T23:50:07.730Z,24.8
2018-12-18T23:52:05.306Z,24.8
2018-12-18T23:54:05.518Z,24.8
2018-12-18T23:56:07.449Z,24.9
2018-12-18T23:58:04.743Z,24.9
